Spring Hill, California
Current Conditions -  °F | °C
As of 10:20 AM on Sunday 25 Jan 2015 (Local Time) from KGOO Reporting Station
Clear Clear  
Wind Chill: 68°   Ceiling: Unl
Heat Index: 68°   Visibility: 10mi
Dew Point: 32°   Wind: 6mph
Humidity: 26%   Direction: 30°NNE
Pressure: 30.2"   Gusts: NA
Location:  39.2183°N, 120.924°W
Report Text: KGOO 251820Z AUTO 03005KT 10SM CLR 20/00 A3020 RMK AO1
Loading
Personal Weather Stations






























Interactive Weather Map New forecast layout! Learn more

10-Day Weather Forecast

Advertisements
Track Severe Weather on mobile